sensor_id;sensor_type;location;lat;lon;timestamp;pressure;altitude;pressure_sealevel;temperature;humidity
65173;BME280;51758;52.218;5.172;2022-07-29T00:01:04;101709.69;;;16.96;66.43
65173;BME280;51758;52.218;5.172;2022-07-29T00:03:31;101707.03;;;16.89;66.61
65173;BME280;51758;52.218;5.172;2022-07-29T00:05:59;101711.88;;;16.86;66.64
65173;BME280;51758;52.218;5.172;2022-07-29T00:08:26;101710.47;;;16.90;66.10
65173;BME280;51758;52.218;5.172;2022-07-29T00:10:54;101702.75;;;16.81;67.11
65173;BME280;51758;52.218;5.172;2022-07-29T00:13:21;101706.59;;;16.86;66.74
65173;BME280;51758;52.218;5.172;2022-07-29T00:15:59;101703.97;;;16.86;66.84
65173;BME280;51758;52.218;5.172;2022-07-29T00:18:30;101701.88;;;16.74;67.70
65173;BME280;51758;52.218;5.172;2022-07-29T00:20:57;101701.13;;;16.80;67.22
65173;BME280;51758;52.218;5.172;2022-07-29T00:23:25;101694.63;;;16.83;67.13
65173;BME280;51758;52.218;5.172;2022-07-29T00:25:52;101690.56;;;16.80;66.96
65173;BME280;51758;52.218;5.172;2022-07-29T00:28:20;101690.56;;;16.80;67.12
65173;BME280;51758;52.218;5.172;2022-07-29T00:30:47;101686.88;;;16.75;67.77
65173;BME280;51758;52.218;5.172;2022-07-29T00:33:16;101682.00;;;16.72;67.52
65173;BME280;51758;52.218;5.172;2022-07-29T00:35:44;101680.97;;;16.66;68.39
65173;BME280;51758;52.218;5.172;2022-07-29T00:38:11;101681.53;;;16.62;68.33
65173;BME280;51758;52.218;5.172;2022-07-29T00:40:38;101677.91;;;16.63;67.61
65173;BME280;51758;52.218;5.172;2022-07-29T00:43:09;101679.91;;;16.54;68.46
65173;BME280;51758;52.218;5.172;2022-07-29T00:45:37;101676.72;;;16.65;67.80
65173;BME280;51758;52.218;5.172;2022-07-29T00:48:05;101671.00;;;16.62;68.32
65173;BME280;51758;52.218;5.172;2022-07-29T00:50:36;101670.34;;;16.53;67.97
65173;BME280;51758;52.218;5.172;2022-07-29T00:53:05;101664.50;;;16.58;67.41
65173;BME280;51758;52.218;5.172;2022-07-29T00:55:33;101655.97;;;16.56;68.25
65173;BME280;51758;52.218;5.172;2022-07-29T00:58:00;101663.84;;;16.49;68.55
65173;BME280;51758;52.218;5.172;2022-07-29T01:00:29;101662.84;;;16.50;68.24
65173;BME280;51758;52.218;5.172;2022-07-29T01:02:57;101659.56;;;16.48;68.86
65173;BME280;51758;52.218;5.172;2022-07-29T01:05:25;101662.84;;;16.50;68.38
65173;BME280;51758;52.218;5.172;2022-07-29T01:08:15;101660.59;;;16.47;68.26
65173;BME280;51758;52.218;5.172;2022-07-29T01:10:42;101662.81;;;16.43;68.47
65173;BME280;51758;52.218;5.172;2022-07-29T01:13:11;101663.63;;;16.44;68.00
65173;BME280;51758;52.218;5.172;2022-07-29T01:15:40;101652.47;;;16.48;67.58
65173;BME280;51758;52.218;5.172;2022-07-29T01:18:16;101650.66;;;16.49;67.88
65173;BME280;51758;52.218;5.172;2022-07-29T01:20:53;101655.94;;;16.49;68.03
65173;BME280;51758;52.218;5.172;2022-07-29T01:23:40;101644.53;;;16.35;68.91
65173;BME280;51758;52.218;5.172;2022-07-29T01:29:03;101659.94;;;16.38;68.72
65173;BME280;51758;52.218;5.172;2022-07-29T01:31:37;101650.66;;;16.42;67.94
65173;BME280;51758;52.218;5.172;2022-07-29T01:34:25;101649.59;;;16.37;68.31
65173;BME280;51758;52.218;5.172;2022-07-29T01:36:55;101650.03;;;16.40;67.89
65173;BME280;51758;52.218;5.172;2022-07-29T01:39:25;101650.84;;;16.41;67.73
65173;BME280;51758;52.218;5.172;2022-07-29T01:41:56;101646.59;;;16.40;67.57
65173;BME280;51758;52.218;5.172;2022-07-29T01:44:27;101658.31;;;16.37;68.30
65173;BME280;51758;52.218;5.172;2022-07-29T01:46:58;101656.69;;;16.30;68.46
65173;BME280;51758;52.218;5.172;2022-07-29T01:49:27;101653.63;;;16.26;68.48
65173;BME280;51758;52.218;5.172;2022-07-29T01:51:56;101652.78;;;16.26;68.14
65173;BME280;51758;52.218;5.172;2022-07-29T01:54:24;101648.91;;;16.22;68.61
65173;BME280;51758;52.218;5.172;2022-07-29T01:56:54;101648.72;;;16.17;69.25
65173;BME280;51758;52.218;5.172;2022-07-29T01:59:23;101645.44;;;16.15;68.88
65173;BME280;51758;52.218;5.172;2022-07-29T02:01:55;101642.38;;;16.11;69.62
65173;BME280;51758;52.218;5.172;2022-07-29T02:04:24;101646.63;;;16.05;69.83
65173;BME280;51758;52.218;5.172;2022-07-29T02:06:57;101645.00;;;16.04;69.64
65173;BME280;51758;52.218;5.172;2022-07-29T02:09:25;101646.81;;;16.04;69.70
65173;BME280;51758;52.218;5.172;2022-07-29T02:11:53;101652.53;;;16.07;69.52
65173;BME280;51758;52.218;5.172;2022-07-29T02:14:22;101645.38;;;16.01;69.18
65173;BME280;51758;52.218;5.172;2022-07-29T02:16:51;101646.38;;;16.00;69.98
65173;BME280;51758;52.218;5.172;2022-07-29T02:19:21;101644.56;;;16.01;70.04
65173;BME280;51758;52.218;5.172;2022-07-29T02:21:51;101647.00;;;16.02;69.54
65173;BME280;51758;52.218;5.172;2022-07-29T02:24:20;101652.72;;;16.06;69.60
65173;BME280;51758;52.218;5.172;2022-07-29T02:26:48;101647.44;;;16.06;69.18
65173;BME280;51758;52.218;5.172;2022-07-29T02:29:16;101648.44;;;16.05;69.74
65173;BME280;51758;52.218;5.172;2022-07-29T02:31:46;101640.72;;;16.03;69.93
65173;BME280;51758;52.218;5.172;2022-07-29T02:34:14;101645.22;;;16.09;69.19
65173;BME280;51758;52.218;5.172;2022-07-29T02:36:47;101648.19;;;16.00;69.50
65173;BME280;51758;52.218;5.172;2022-07-29T02:39:15;101639.34;;;16.07;68.75
65173;BME280;51758;52.218;5.172;2022-07-29T02:41:45;101638.72;;;16.05;69.38
65173;BME280;51758;52.218;5.172;2022-07-29T02:44:14;101633.03;;;16.08;68.47
65173;BME280;51758;52.218;5.172;2022-07-29T02:46:46;101640.72;;;16.03;69.68
65173;BME280;51758;52.218;5.172;2022-07-29T02:49:15;101630.63;;;16.07;68.92
65173;BME280;51758;52.218;5.172;2022-07-29T02:51:45;101634.66;;;16.09;68.66
65173;BME280;51758;52.218;5.172;2022-07-29T02:54:21;101636.50;;;16.09;68.63
65173;BME280;51758;52.218;5.172;2022-07-29T02:56:49;101636.09;;;16.12;68.79
65173;BME280;51758;52.218;5.172;2022-07-29T02:59:20;101636.47;;;16.02;69.13
65173;BME280;51758;52.218;5.172;2022-07-29T03:01:49;101634.47;;;16.04;68.46
65173;BME280;51758;52.218;5.172;2022-07-29T03:04:17;101632.66;;;16.05;68.61
65173;BME280;51758;52.218;5.172;2022-07-29T03:06:46;101632.66;;;16.05;68.58
65173;BME280;51758;52.218;5.172;2022-07-29T03:09:15;101626.56;;;16.04;69.21
65173;BME280;51758;52.218;5.172;2022-07-29T03:11:44;101633.47;;;16.05;69.09
65173;BME280;51758;52.218;5.172;2022-07-29T03:14:15;101629.00;;;16.06;68.95
65173;BME280;51758;52.218;5.172;2022-07-29T03:16:44;101581.41;;;15.73;69.60
65173;BME280;51758;52.218;5.172;2022-07-29T03:19:12;101630.19;;;16.03;69.69
65173;BME280;51758;52.218;5.172;2022-07-29T03:21:39;101623.13;;;16.04;69.21
65173;BME280;51758;52.218;5.172;2022-07-29T03:24:07;101618.03;;;16.02;69.27
65173;BME280;51758;52.218;5.172;2022-07-29T03:26:37;101617.84;;;16.04;69.02
65173;BME280;51758;52.218;5.172;2022-07-29T03:29:06;101612.16;;;16.00;68.79
65173;BME280;51758;52.218;5.172;2022-07-29T03:31:38;101611.31;;;16.00;69.15
65173;BME280;51758;52.218;5.172;2022-07-29T03:34:08;101608.88;;;15.98;69.21
65173;BME280;51758;52.218;5.172;2022-07-29T03:36:36;101605.88;;;16.01;68.84
65173;BME280;51758;52.218;5.172;2022-07-29T03:39:03;101612.16;;;16.00;68.87
65173;BME280;51758;52.218;5.172;2022-07-29T03:41:31;101607.88;;;15.99;69.17
65173;BME280;51758;52.218;5.172;2022-07-29T03:44:00;101608.06;;;15.98;68.79
65173;BME280;51758;52.218;5.172;2022-07-29T03:46:30;101615.59;;;16.01;68.99
65173;BME280;51758;52.218;5.172;2022-07-29T03:49:00;101614.41;;;16.03;69.13
65173;BME280;51758;52.218;5.172;2022-07-29T03:51:28;101606.44;;;15.97;68.66
65173;BME280;51758;52.218;5.172;2022-07-29T03:53:59;101606.25;;;15.98;68.63
65173;BME280;51758;52.218;5.172;2022-07-29T03:56:37;101607.25;;;15.97;68.46
65173;BME280;51758;52.218;5.172;2022-07-29T03:59:05;101605.41;;;15.91;69.06
65173;BME280;51758;52.218;5.172;2022-07-29T04:01:34;101609.69;;;15.92;68.39
65173;BME280;51758;52.218;5.172;2022-07-29T04:04:02;101610.50;;;15.93;69.04
65173;BME280;51758;52.218;5.172;2022-07-29T04:06:37;101607.84;;;15.93;68.95
65173;BME280;51758;52.218;5.172;2022-07-29T04:09:05;101609.25;;;15.89;69.39
65173;BME280;51758;52.218;5.172;2022-07-29T04:11:35;101611.44;;;15.85;69.33
65173;BME280;51758;52.218;5.172;2022-07-29T04:14:23;101608.69;;;15.93;69.22
65173;BME280;51758;52.218;5.172;2022-07-29T04:16:52;101605.84;;;15.95;68.97
65173;BME280;51758;52.218;5.172;2022-07-29T04:19:19;101605.03;;;15.94;69.37
65173;BME280;51758;52.218;5.172;2022-07-29T04:21:47;101606.84;;;15.94;69.23
65173;BME280;51758;52.218;5.172;2022-07-29T04:24:14;101599.53;;;15.96;68.92
65173;BME280;51758;52.218;5.172;2022-07-29T04:26:43;101600.78;;;16.00;68.55
65173;BME280;51758;52.218;5.172;2022-07-29T04:29:10;101602.41;;;15.94;69.17
65173;BME280;51758;52.218;5.172;2022-07-29T04:31:38;101597.53;;;15.98;68.38
65173;BME280;51758;52.218;5.172;2022-07-29T04:34:07;101602.63;;;15.99;68.52
65173;BME280;51758;52.218;5.172;2022-07-29T04:36:35;101599.34;;;15.97;68.89
65173;BME280;51758;52.218;5.172;2022-07-29T04:39:02;101602.63;;;15.99;68.51
65173;BME280;51758;52.218;5.172;2022-07-29T04:41:30;101598.59;;;16.03;68.37
65173;BME280;51758;52.218;5.172;2022-07-29T04:43:59;101597.13;;;15.94;68.75
65173;BME280;51758;52.218;5.172;2022-07-29T04:46:37;101604.44;;;15.99;68.79
65173;BME280;51758;52.218;5.172;2022-07-29T04:49:05;101602.41;;;16.01;68.73
65173;BME280;51758;52.218;5.172;2022-07-29T04:51:34;101602.03;;;16.04;68.06
65173;BME280;51758;52.218;5.172;2022-07-29T04:54:01;101604.88;;;16.09;68.58
65173;BME280;51758;52.218;5.172;2022-07-29T04:56:28;101605.13;;;16.14;68.30
65173;BME280;51758;52.218;5.172;2022-07-29T04:58:56;101603.69;;;16.11;68.92
65173;BME280;51758;52.218;5.172;2022-07-29T05:01:23;101606.50;;;16.10;68.59
65173;BME280;51758;52.218;5.172;2022-07-29T05:03:51;101614.81;;;16.07;68.99
65173;BME280;51758;52.218;5.172;2022-07-29T05:06:25;101609.19;;;16.17;68.56
65173;BME280;51758;52.218;5.172;2022-07-29T05:08:54;101607.00;;;16.20;68.23
65173;BME280;51758;52.218;5.172;2022-07-29T05:11:21;101610.25;;;16.29;67.95
65173;BME280;51758;52.218;5.172;2022-07-29T05:13:55;101614.28;;;16.25;68.64
65173;BME280;51758;52.218;5.172;2022-07-29T05:16:22;101611.66;;;16.25;68.62
65173;BME280;51758;52.218;5.172;2022-07-29T05:18:50;101612.91;;;16.29;68.79
65173;BME280;51758;52.218;5.172;2022-07-29T05:21:17;101614.53;;;16.30;68.61
65173;BME280;51758;52.218;5.172;2022-07-29T05:23:45;101609.25;;;16.36;68.38
65173;BME280;51758;52.218;5.172;2022-07-29T05:26:14;101614.16;;;16.39;68.13
65173;BME280;51758;52.218;5.172;2022-07-29T05:28:41;101610.31;;;16.42;67.93
65173;BME280;51758;52.218;5.172;2022-07-29T05:31:09;101618.84;;;16.44;68.14
65173;BME280;51758;52.218;5.172;2022-07-29T05:33:36;101619.25;;;16.54;68.20
65173;BME280;51758;52.218;5.172;2022-07-29T05:36:04;101609.91;;;16.45;67.85
65173;BME280;51758;52.218;5.172;2022-07-29T05:38:33;101615.00;;;16.53;68.32
65173;BME280;51758;52.218;5.172;2022-07-29T05:41:01;101616.63;;;16.54;68.41
65173;BME280;51758;52.218;5.172;2022-07-29T05:43:30;101614.19;;;16.59;68.06
65173;BME280;51758;52.218;5.172;2022-07-29T05:45:57;101613.81;;;16.56;67.81
65173;BME280;51758;52.218;5.172;2022-07-29T05:48:25;101617.84;;;16.52;68.15
65173;BME280;51758;52.218;5.172;2022-07-29T05:50:53;101609.34;;;16.56;68.32
65173;BME280;51758;52.218;5.172;2022-07-29T05:53:21;101621.91;;;16.54;68.28
65173;BME280;51758;52.218;5.172;2022-07-29T05:55:49;101618.69;;;16.59;67.34
65173;BME280;51758;52.218;5.172;2022-07-29T05:58:16;101620.50;;;16.58;68.03
65173;BME280;51758;52.218;5.172;2022-07-29T06:00:45;101626.38;;;16.60;68.23
65173;BME280;51758;52.218;5.172;2022-07-29T06:03:13;101633.47;;;16.60;67.69
65173;BME280;51758;52.218;5.172;2022-07-29T06:05:40;101629.00;;;16.60;67.81
65173;BME280;51758;52.218;5.172;2022-07-29T06:08:08;101641.59;;;16.58;68.34
65173;BME280;51758;52.218;5.172;2022-07-29T06:10:35;101632.91;;;16.64;68.19
65173;BME280;51758;52.218;5.172;2022-07-29T06:13:03;101635.28;;;16.59;68.68
65173;BME280;51758;52.218;5.172;2022-07-29T06:15:30;101629.19;;;16.45;68.95
65173;BME280;51758;52.218;5.172;2022-07-29T06:17:59;101622.28;;;16.51;69.08
65173;BME280;51758;52.218;5.172;2022-07-29T06:20:27;101623.97;;;16.59;68.70
65173;BME280;51758;52.218;5.172;2022-07-29T06:22:56;101626.81;;;16.64;68.71
65173;BME280;51758;52.218;5.172;2022-07-29T06:25:24;101615.31;;;16.71;68.32
65173;BME280;51758;52.218;5.172;2022-07-29T06:27:51;101627.69;;;16.84;67.81
65173;BME280;51758;52.218;5.172;2022-07-29T06:30:19;101615.75;;;17.01;67.17
65173;BME280;51758;52.218;5.172;2022-07-29T06:32:47;101627.72;;;17.24;68.31
65173;BME280;51758;52.218;5.172;2022-07-29T06:35:16;101619.59;;;17.38;67.83
65173;BME280;51758;52.218;5.172;2022-07-29T06:38:04;101628.56;;;17.64;66.81
65173;BME280;51758;52.218;5.172;2022-07-29T06:40:51;101625.28;;;17.75;66.32
65173;BME280;51758;52.218;5.172;2022-07-29T06:43:29;101628.47;;;18.10;65.80
65173;BME280;51758;52.218;5.172;2022-07-29T06:45:58;101632.34;;;18.07;64.81
65173;BME280;51758;52.218;5.172;2022-07-29T06:48:26;101637.66;;;17.94;64.75
65173;BME280;51758;52.218;5.172;2022-07-29T06:50:55;101638.47;;;17.88;65.50
65173;BME280;51758;52.218;5.172;2022-07-29T06:53:23;101652.88;;;17.92;65.16
65173;BME280;51758;52.218;5.172;2022-07-29T06:55:50;101656.72;;;18.03;65.42
65173;BME280;51758;52.218;5.172;2022-07-29T06:58:18;101657.69;;;18.21;64.83
65173;BME280;51758;52.218;5.172;2022-07-29T07:00:46;101662.13;;;18.27;63.92
65173;BME280;51758;52.218;5.172;2022-07-29T07:03:14;101667.88;;;18.18;64.18
65173;BME280;51758;52.218;5.172;2022-07-29T07:05:42;101662.59;;;18.11;64.00
65173;BME280;51758;52.218;5.172;2022-07-29T07:08:11;101670.72;;;18.23;64.74
65173;BME280;51758;52.218;5.172;2022-07-29T07:10:39;101669.00;;;18.42;64.39
65173;BME280;51758;52.218;5.172;2022-07-29T07:13:07;101676.13;;;18.41;64.61
65173;BME280;51758;52.218;5.172;2022-07-29T07:15:35;101671.59;;;18.55;64.06
65173;BME280;51758;52.218;5.172;2022-07-29T07:18:05;101665.91;;;18.58;64.19
65173;BME280;51758;52.218;5.172;2022-07-29T07:20:33;101664.78;;;18.79;63.84
65173;BME280;51758;52.218;5.172;2022-07-29T07:23:00;101674.88;;;18.95;64.07
65173;BME280;51758;52.218;5.172;2022-07-29T07:25:29;101664.13;;;19.21;62.97
65173;BME280;51758;52.218;5.172;2022-07-29T07:27:57;101665.50;;;18.99;62.37
65173;BME280;51758;52.218;5.172;2022-07-29T07:30:25;101656.31;;;18.70;63.32
65173;BME280;51758;52.218;5.172;2022-07-29T07:32:53;101663.50;;;18.88;63.65
65173;BME280;51758;52.218;5.172;2022-07-29T07:35:21;101662.72;;;19.19;62.94
65173;BME280;51758;52.218;5.172;2022-07-29T07:37:49;101654.44;;;19.09;62.83
65173;BME280;51758;52.218;5.172;2022-07-29T07:40:16;101660.41;;;18.98;62.66
65173;BME280;51758;52.218;5.172;2022-07-29T07:42:45;101653.84;;;19.31;62.60
65173;BME280;51758;52.218;5.172;2022-07-29T07:45:13;101655.78;;;19.49;61.45
65173;BME280;51758;52.218;5.172;2022-07-29T07:47:41;101645.81;;;19.70;61.00
65173;BME280;51758;52.218;5.172;2022-07-29T07:50:09;101639.53;;;19.39;61.34
65173;BME280;51758;52.218;5.172;2022-07-29T07:52:47;101639.56;;;19.82;60.74
65173;BME280;51758;52.218;5.172;2022-07-29T07:55:15;101640.97;;;20.03;60.18
65173;BME280;51758;52.218;5.172;2022-07-29T07:57:42;101643.34;;;20.11;59.36
65173;BME280;51758;52.218;5.172;2022-07-29T08:00:12;101631.69;;;20.30;59.57
65173;BME280;51758;52.218;5.172;2022-07-29T08:02:40;101639.13;;;20.40;58.67
65173;BME280;51758;52.218;5.172;2022-07-29T08:05:09;101630.66;;;20.50;58.24
65173;BME280;51758;52.218;5.172;2022-07-29T08:07:38;101632.69;;;20.78;57.58
65173;BME280;51758;52.218;5.172;2022-07-29T08:10:06;101630.34;;;20.88;56.94
65173;BME280;51758;52.218;5.172;2022-07-29T08:12:33;101644.41;;;20.58;57.39
65173;BME280;51758;52.218;5.172;2022-07-29T08:15:01;101640.06;;;20.64;58.40
65173;BME280;51758;52.218;5.172;2022-07-29T08:17:29;101638.03;;;20.48;58.26
65173;BME280;51758;52.218;5.172;2022-07-29T08:20:00;101636.78;;;20.50;57.11
65173;BME280;51758;52.218;5.172;2022-07-29T08:22:28;101635.25;;;20.72;57.02
65173;BME280;51758;52.218;5.172;2022-07-29T08:24:55;101645.50;;;20.69;56.58
65173;BME280;51758;52.218;5.172;2022-07-29T08:27:23;101651.66;;;20.33;58.05
65173;BME280;51758;52.218;5.172;2022-07-29T08:30:09;101650.59;;;20.82;57.31
65173;BME280;51758;52.218;5.172;2022-07-29T08:32:38;101642.44;;;21.37;56.94
65173;BME280;51758;52.218;5.172;2022-07-29T08:35:22;101637.25;;;21.54;54.81
65173;BME280;51758;52.218;5.172;2022-07-29T08:37:50;101636.31;;;21.60;53.97
65173;BME280;51758;52.218;5.172;2022-07-29T08:40:18;101638.84;;;21.66;54.32
65173;BME280;51758;52.218;5.172;2022-07-29T08:42:57;101648.72;;;22.29;54.19
65173;BME280;51758;52.218;5.172;2022-07-29T08:45:24;101614.69;;;21.09;53.34
65173;BME280;51758;52.218;5.172;2022-07-29T08:47:54;101641.28;;;21.56;53.71
65173;BME280;51758;52.218;5.172;2022-07-29T08:50:22;101658.56;;;21.12;54.39
65173;BME280;51758;52.218;5.172;2022-07-29T08:52:49;101654.31;;;21.23;55.25
65173;BME280;51758;52.218;5.172;2022-07-29T08:55:24;101644.66;;;22.38;54.36
65173;BME280;51758;52.218;5.172;2022-07-29T08:57:52;101606.16;;;22.86;52.65
65173;BME280;51758;52.218;5.172;2022-07-29T09:00:22;101647.44;;;23.50;50.05
65173;BME280;51758;52.218;5.172;2022-07-29T09:02:54;101649.06;;;23.73;50.19
65173;BME280;51758;52.218;5.172;2022-07-29T09:05:24;101655.31;;;24.01;50.11
65173;BME280;51758;52.218;5.172;2022-07-29T09:07:53;101646.34;;;24.28;48.92
65173;BME280;51758;52.218;5.172;2022-07-29T09:10:20;101649.75;;;24.24;47.22
65173;BME280;51758;52.218;5.172;2022-07-29T09:12:48;101651.88;;;24.44;48.59
65173;BME280;51758;52.218;5.172;2022-07-29T09:15:16;101647.34;;;24.44;47.76
65173;BME280;51758;52.218;5.172;2022-07-29T09:17:45;101650.09;;;24.54;48.53
65173;BME280;51758;52.218;5.172;2022-07-29T09:20:13;101649.81;;;24.78;47.76
65173;BME280;51758;52.218;5.172;2022-07-29T09:22:43;101644.03;;;24.91;46.33
65173;BME280;51758;52.218;5.172;2022-07-29T09:25:13;101632.38;;;24.43;45.94
65173;BME280;51758;52.218;5.172;2022-07-29T09:27:40;101636.94;;;24.48;45.96
65173;BME280;51758;52.218;5.172;2022-07-29T09:30:09;101627.88;;;24.49;47.15
65173;BME280;51758;52.218;5.172;2022-07-29T09:35:20;101626.66;;;24.88;43.23
65173;BME280;51758;52.218;5.172;2022-07-29T09:37:49;101622.88;;;24.57;45.20
65173;BME280;51758;52.218;5.172;2022-07-29T09:40:17;101624.16;;;24.77;46.55
65173;BME280;51758;52.218;5.172;2022-07-29T09:42:46;101622.72;;;25.28;45.42
65173;BME280;51758;52.218;5.172;2022-07-29T09:45:25;101621.13;;;25.27;43.54
65173;BME280;51758;52.218;5.172;2022-07-29T09:47:53;101616.97;;;25.09;42.02
65173;BME280;51758;52.218;5.172;2022-07-29T09:50:33;101629.69;;;24.97;44.14
65173;BME280;51758;52.218;5.172;2022-07-29T09:53:02;101628.69;;;25.40;43.11
65173;BME280;51758;52.218;5.172;2022-07-29T09:55:30;101635.53;;;25.26;42.96
65173;BME280;51758;52.218;5.172;2022-07-29T09:58:14;101634.66;;;25.15;43.62
65173;BME280;51758;52.218;5.172;2022-07-29T10:00:44;101637.22;;;25.37;45.95
65173;BME280;51758;52.218;5.172;2022-07-29T10:03:11;101627.00;;;25.66;45.40
65173;BME280;51758;52.218;5.172;2022-07-29T10:05:39;101628.75;;;25.97;45.14
65173;BME280;51758;52.218;5.172;2022-07-29T10:08:10;101634.47;;;26.21;42.93
65173;BME280;51758;52.218;5.172;2022-07-29T10:10:38;101632.00;;;26.04;41.63
65173;BME280;51758;52.218;5.172;2022-07-29T10:13:08;101629.38;;;26.25;42.22
65173;BME280;51758;52.218;5.172;2022-07-29T10:15:42;101633.78;;;26.56;41.78
65173;BME280;51758;52.218;5.172;2022-07-29T10:18:12;101628.69;;;26.75;42.61
65173;BME280;51758;52.218;5.172;2022-07-29T10:20:39;101628.94;;;26.63;42.11
65173;BME280;51758;52.218;5.172;2022-07-29T10:23:07;101627.88;;;26.64;40.58
65173;BME280;51758;52.218;5.172;2022-07-29T10:25:37;101623.56;;;26.48;42.52
65173;BME280;51758;52.218;5.172;2022-07-29T10:28:05;101621.97;;;26.47;41.32
65173;BME280;51758;52.218;5.172;2022-07-29T10:30:32;101620.66;;;26.65;40.70
65173;BME280;51758;52.218;5.172;2022-07-29T10:33:18;101627.63;;;26.76;41.02
65173;BME280;51758;52.218;5.172;2022-07-29T10:35:54;101624.03;;;26.25;40.87
65173;BME280;51758;52.218;5.172;2022-07-29T10:38:33;101620.09;;;26.48;42.60
65173;BME280;51758;52.218;5.172;2022-07-29T10:41:16;101620.66;;;26.85;41.05
65173;BME280;51758;52.218;5.172;2022-07-29T10:43:58;101623.84;;;26.52;41.49
65173;BME280;51758;52.218;5.172;2022-07-29T10:46:26;101621.50;;;27.21;42.12
65173;BME280;51758;52.218;5.172;2022-07-29T10:49:04;101615.78;;;27.63;41.28
65173;BME280;51758;52.218;5.172;2022-07-29T10:51:50;101625.28;;;28.10;39.27
65173;BME280;51758;52.218;5.172;2022-07-29T10:54:19;101624.44;;;28.14;39.03
65173;BME280;51758;52.218;5.172;2022-07-29T10:57:13;101630.09;;;28.62;39.90
65173;BME280;51758;52.218;5.172;2022-07-29T10:59:41;101629.28;;;28.62;38.04
65173;BME280;51758;52.218;5.172;2022-07-29T11:05:09;101623.41;;;28.00;41.41
65173;BME280;51758;52.218;5.172;2022-07-29T11:07:38;101619.63;;;28.61;41.31
65173;BME280;51758;52.218;5.172;2022-07-29T11:10:21;101614.72;;;29.02;40.08
65173;BME280;51758;52.218;5.172;2022-07-29T11:12:58;101620.41;;;29.29;39.62
65173;BME280;51758;52.218;5.172;2022-07-29T11:15:26;101619.22;;;29.40;38.62
65173;BME280;51758;52.218;5.172;2022-07-29T11:18:03;101616.38;;;29.55;39.35
65173;BME280;51758;52.218;5.172;2022-07-29T11:20:32;101611.66;;;29.90;38.29
65173;BME280;51758;52.218;5.172;2022-07-29T11:23:16;101614.84;;;30.16;37.12
65173;BME280;51758;52.218;5.172;2022-07-29T11:25:44;101617.03;;;30.14;36.58
65173;BME280;51758;52.218;5.172;2022-07-29T11:28:19;101617.69;;;30.62;35.24
65173;BME280;51758;52.218;5.172;2022-07-29T11:30:51;101612.06;;;30.77;36.20
65173;BME280;51758;52.218;5.172;2022-07-29T11:33:28;101613.63;;;30.65;34.27
65173;BME280;51758;52.218;5.172;2022-07-29T11:36:16;101629.38;;;29.72;34.92
65173;BME280;51758;52.218;5.172;2022-07-29T11:38:53;101620.63;;;29.04;38.76
65173;BME280;51758;52.218;5.172;2022-07-29T11:41:40;101625.75;;;29.82;37.00
65173;BME280;51758;52.218;5.172;2022-07-29T11:44:09;101620.94;;;30.03;35.41
65173;BME280;51758;52.218;5.172;2022-07-29T11:46:46;101617.53;;;30.72;34.90
65173;BME280;51758;52.218;5.172;2022-07-29T11:49:18;101622.84;;;31.10;34.50
65173;BME280;51758;52.218;5.172;2022-07-29T11:51:50;101630.38;;;31.54;32.23
65173;BME280;51758;52.218;5.172;2022-07-29T11:54:21;101624.28;;;31.21;31.97
65173;BME280;51758;52.218;5.172;2022-07-29T11:57:10;101626.91;;;31.53;33.19
65173;BME280;51758;52.218;5.172;2022-07-29T11:59:45;101623.00;;;31.87;34.12
65173;BME280;51758;52.218;5.172;2022-07-29T12:02:14;101621.63;;;31.89;33.60
65173;BME280;51758;52.218;5.172;2022-07-29T12:05:01;101611.84;;;32.29;32.28
65173;BME280;51758;52.218;5.172;2022-07-29T12:07:49;101614.56;;;32.52;32.43
65173;BME280;51758;52.218;5.172;2022-07-29T12:10:17;101616.38;;;32.79;34.08
65173;BME280;51758;52.218;5.172;2022-07-29T12:12:56;101613.06;;;32.68;32.95
65173;BME280;51758;52.218;5.172;2022-07-29T12:15:25;101615.78;;;32.46;32.71
65173;BME280;51758;52.218;5.172;2022-07-29T12:18:12;101617.63;;;33.03;32.13
65173;BME280;51758;52.218;5.172;2022-07-29T12:20:40;101623.88;;;33.13;33.06
65173;BME280;51758;52.218;5.172;2022-07-29T12:23:10;101618.38;;;33.66;31.58
65173;BME280;51758;52.218;5.172;2022-07-29T12:25:41;101625.78;;;34.00;30.61
65173;BME280;51758;52.218;5.172;2022-07-29T12:28:15;101620.88;;;34.28;28.13
65173;BME280;51758;52.218;5.172;2022-07-29T12:30:54;101620.69;;;34.24;28.08
65173;BME280;51758;52.218;5.172;2022-07-29T12:33:23;101620.53;;;34.46;27.70
65173;BME280;51758;52.218;5.172;2022-07-29T12:35:52;101618.63;;;34.64;27.08
65173;BME280;51758;52.218;5.172;2022-07-29T12:38:33;101630.75;;;34.15;30.19
65173;BME280;51758;52.218;5.172;2022-07-29T12:41:01;101625.66;;;34.82;29.99
65173;BME280;51758;52.218;5.172;2022-07-29T12:43:30;101620.72;;;35.22;27.84
65173;BME280;51758;52.218;5.172;2022-07-29T12:46:10;101619.88;;;35.39;29.76
65173;BME280;51758;52.218;5.172;2022-07-29T12:48:38;101618.72;;;35.78;27.87
65173;BME280;51758;52.218;5.172;2022-07-29T12:51:07;101626.03;;;35.57;28.25
65173;BME280;51758;52.218;5.172;2022-07-29T12:53:35;101619.41;;;35.37;28.74
65173;BME280;51758;52.218;5.172;2022-07-29T12:56:03;101619.53;;;36.20;25.66
65173;BME280;51758;52.218;5.172;2022-07-29T12:58:51;101621.06;;;35.59;27.37
65173;BME280;51758;52.218;5.172;2022-07-29T13:01:20;101616.63;;;35.84;26.65
65173;BME280;51758;52.218;5.172;2022-07-29T13:03:49;101615.56;;;36.18;25.75
65173;BME280;51758;52.218;5.172;2022-07-29T13:06:29;101616.34;;;35.77;27.36
65173;BME280;51758;52.218;5.172;2022-07-29T13:09:00;101616.81;;;36.00;26.79
65173;BME280;51758;52.218;5.172;2022-07-29T13:11:30;101618.53;;;36.79;26.72
65173;BME280;51758;52.218;5.172;2022-07-29T13:13:59;101615.31;;;36.98;24.82
65173;BME280;51758;52.218;5.172;2022-07-29T13:16:33;101608.22;;;36.51;24.57